Gateway, Arkansas
Current Conditions -  °F | °C
As of 4:57 AM on Friday 31 Oct 2014 (Local Time) from KROG Reporting Station
Clear Clear  
Wind Chill:   Ceiling: Unl
Heat Index:   Visibility: 10mi
Dew Point:   Wind: 13mph
Humidity: 71%   Direction: 340°NNW
Pressure: 30.19"   Gusts: 23mph
Location:  36.49°N, 93.93°W
Report Text: KROG 310957Z AUTO 34011G20KT 10SM CLR 09/04 A3019 RMK AO2 SLP219 T00940044 TSNO $
Loading
Personal Weather Stations






























Interactive Weather Map
Tropical Storm Tracking
New forecast layout! Learn more

10-Day Weather Forecast

Advertisements
Track Severe Weather on mobile